sensor_id;sensor_type;location;lat;lon;timestamp;temperature;humidity
1786;DHT22;890;48.158;11.540;2024-02-26T00:00:53;6.30;74.50
1786;DHT22;890;48.158;11.540;2024-02-26T00:03:19;6.30;74.40
1786;DHT22;890;48.158;11.540;2024-02-26T00:05:45;6.60;74.50
1786;DHT22;890;48.158;11.540;2024-02-26T00:08:11;6.30;74.10
1786;DHT22;890;48.158;11.540;2024-02-26T00:10:36;6.30;74.80
1786;DHT22;890;48.158;11.540;2024-02-26T00:13:02;6.20;74.00
1786;DHT22;890;48.158;11.540;2024-02-26T00:15:28;6.20;74.00
1786;DHT22;890;48.158;11.540;2024-02-26T00:17:53;6.20;73.90
1786;DHT22;890;48.158;11.540;2024-02-26T00:20:19;6.30;73.90
1786;DHT22;890;48.158;11.540;2024-02-26T00:22:45;6.30;73.60
1786;DHT22;890;48.158;11.540;2024-02-26T00:25:10;6.30;73.20
1786;DHT22;890;48.158;11.540;2024-02-26T00:27:37;6.40;73.30
1786;DHT22;890;48.158;11.540;2024-02-26T00:30:06;6.20;72.90
1786;DHT22;890;48.158;11.540;2024-02-26T00:32:33;6.20;72.70
1786;DHT22;890;48.158;11.540;2024-02-26T00:34:59;6.20;72.60
1786;DHT22;890;48.158;11.540;2024-02-26T00:37:24;6.70;73.10
1786;DHT22;890;48.158;11.540;2024-02-26T00:39:50;6.40;72.60
1786;DHT22;890;48.158;11.540;2024-02-26T00:42:16;6.30;72.30
1786;DHT22;890;48.158;11.540;2024-02-26T00:44:41;6.20;71.90
1786;DHT22;890;48.158;11.540;2024-02-26T00:47:07;6.30;71.90
1786;DHT22;890;48.158;11.540;2024-02-26T00:49:33;6.40;71.70
1786;DHT22;890;48.158;11.540;2024-02-26T00:51:58;6.30;71.40
1786;DHT22;890;48.158;11.540;2024-02-26T00:54:24;6.50;71.50
1786;DHT22;890;48.158;11.540;2024-02-26T00:56:49;6.30;71.30
1786;DHT22;890;48.158;11.540;2024-02-26T00:59:15;6.40;71.30
1786;DHT22;890;48.158;11.540;2024-02-26T01:01:41;6.40;71.20
1786;DHT22;890;48.158;11.540;2024-02-26T01:04:09;6.40;71.10
1786;DHT22;890;48.158;11.540;2024-02-26T01:06:35;6.40;70.70
1786;DHT22;890;48.158;11.540;2024-02-26T01:09:00;6.30;70.50
1786;DHT22;890;48.158;11.540;2024-02-26T01:11:26;6.30;70.60
1786;DHT22;890;48.158;11.540;2024-02-26T01:13:52;6.20;70.50
1786;DHT22;890;48.158;11.540;2024-02-26T01:16:24;6.20;71.50
1786;DHT22;890;48.158;11.540;2024-02-26T01:18:50;6.20;70.80
1786;DHT22;890;48.158;11.540;2024-02-26T01:21:16;6.10;70.70
1786;DHT22;890;48.158;11.540;2024-02-26T01:23:41;6.10;70.70
1786;DHT22;890;48.158;11.540;2024-02-26T01:26:07;6.00;70.70
1786;DHT22;890;48.158;11.540;2024-02-26T01:28:33;6.00;70.90
1786;DHT22;890;48.158;11.540;2024-02-26T01:30:59;6.40;71.30
1786;DHT22;890;48.158;11.540;2024-02-26T01:33:26;6.10;71.00
1786;DHT22;890;48.158;11.540;2024-02-26T01:35:51;6.30;71.10
1786;DHT22;890;48.158;11.540;2024-02-26T01:38:18;6.10;70.90
1786;DHT22;890;48.158;11.540;2024-02-26T01:40:44;6.10;70.80
1786;DHT22;890;48.158;11.540;2024-02-26T01:43:09;6.10;70.80
1786;DHT22;890;48.158;11.540;2024-02-26T01:45:35;6.10;70.70
1786;DHT22;890;48.158;11.540;2024-02-26T01:48:01;6.20;70.80
1786;DHT22;890;48.158;11.540;2024-02-26T01:50:27;6.10;70.70
1786;DHT22;890;48.158;11.540;2024-02-26T01:52:54;6.10;70.70
1786;DHT22;890;48.158;11.540;2024-02-26T01:55:22;6.00;70.50
1786;DHT22;890;48.158;11.540;2024-02-26T01:57:50;6.30;70.90
1786;DHT22;890;48.158;11.540;2024-02-26T02:00:18;6.10;70.80
1786;DHT22;890;48.158;11.540;2024-02-26T02:02:44;6.00;70.60
1786;DHT22;890;48.158;11.540;2024-02-26T02:05:12;6.10;70.70
1786;DHT22;890;48.158;11.540;2024-02-26T02:07:39;6.10;70.60
1786;DHT22;890;48.158;11.540;2024-02-26T02:10:06;7.20;71.50
1786;DHT22;890;48.158;11.540;2024-02-26T02:12:32;6.10;70.40
1786;DHT22;890;48.158;11.540;2024-02-26T02:15:00;6.00;70.40
1786;DHT22;890;48.158;11.540;2024-02-26T02:17:27;6.30;70.90
1786;DHT22;890;48.158;11.540;2024-02-26T02:19:52;6.00;70.70
1786;DHT22;890;48.158;11.540;2024-02-26T02:22:18;5.90;70.60
1786;DHT22;890;48.158;11.540;2024-02-26T02:24:45;5.90;70.70
1786;DHT22;890;48.158;11.540;2024-02-26T02:27:10;5.90;70.90
1786;DHT22;890;48.158;11.540;2024-02-26T02:29:36;6.00;70.80
1786;DHT22;890;48.158;11.540;2024-02-26T02:32:03;8.70;73.50
1786;DHT22;890;48.158;11.540;2024-02-26T02:34:31;6.00;70.80
1786;DHT22;890;48.158;11.540;2024-02-26T02:36:57;7.00;71.80
1786;DHT22;890;48.158;11.540;2024-02-26T02:39:22;6.70;71.60
1786;DHT22;890;48.158;11.540;2024-02-26T02:41:48;5.90;70.80
1786;DHT22;890;48.158;11.540;2024-02-26T02:44:13;5.90;70.50
1786;DHT22;890;48.158;11.540;2024-02-26T02:46:39;6.00;70.40
1786;DHT22;890;48.158;11.540;2024-02-26T02:49:11;6.20;70.40
1786;DHT22;890;48.158;11.540;2024-02-26T02:51:37;5.80;70.40
1786;DHT22;890;48.158;11.540;2024-02-26T02:54:03;5.80;70.40
1786;DHT22;890;48.158;11.540;2024-02-26T02:56:28;5.90;70.40
1786;DHT22;890;48.158;11.540;2024-02-26T02:58:54;5.80;70.20
1786;DHT22;890;48.158;11.540;2024-02-26T03:01:20;5.90;70.30
1786;DHT22;890;48.158;11.540;2024-02-26T03:03:45;5.70;70.30
1786;DHT22;890;48.158;11.540;2024-02-26T03:06:11;5.90;70.50
1786;DHT22;890;48.158;11.540;2024-02-26T03:08:37;5.80;70.30
1786;DHT22;890;48.158;11.540;2024-02-26T03:11:05;6.00;70.50
1786;DHT22;890;48.158;11.540;2024-02-26T03:13:30;5.90;70.20
1786;DHT22;890;48.158;11.540;2024-02-26T03:15:56;5.90;70.10
1786;DHT22;890;48.158;11.540;2024-02-26T03:18:22;5.80;70.10
1786;DHT22;890;48.158;11.540;2024-02-26T03:20:49;5.70;70.10
1786;DHT22;890;48.158;11.540;2024-02-26T03:23:14;5.70;70.40
1786;DHT22;890;48.158;11.540;2024-02-26T03:25:44;5.80;70.60
1786;DHT22;890;48.158;11.540;2024-02-26T03:28:11;5.80;70.20
1786;DHT22;890;48.158;11.540;2024-02-26T03:30:38;5.70;70.20
1786;DHT22;890;48.158;11.540;2024-02-26T03:33:03;5.50;70.00
1786;DHT22;890;48.158;11.540;2024-02-26T03:35:29;5.90;70.40
1786;DHT22;890;48.158;11.540;2024-02-26T03:37:55;5.90;70.20
1786;DHT22;890;48.158;11.540;2024-02-26T03:40:20;5.90;70.20
1786;DHT22;890;48.158;11.540;2024-02-26T03:42:46;5.90;70.00
1786;DHT22;890;48.158;11.540;2024-02-26T03:45:12;5.90;70.00
1786;DHT22;890;48.158;11.540;2024-02-26T03:47:38;7.20;71.10
1786;DHT22;890;48.158;11.540;2024-02-26T03:50:07;5.70;69.90
1786;DHT22;890;48.158;11.540;2024-02-26T03:52:33;5.70;69.60
1786;DHT22;890;48.158;11.540;2024-02-26T03:54:59;5.80;69.80
1786;DHT22;890;48.158;11.540;2024-02-26T03:57:25;5.80;70.00
1786;DHT22;890;48.158;11.540;2024-02-26T03:59:50;6.00;69.90
1786;DHT22;890;48.158;11.540;2024-02-26T04:02:16;5.90;69.70
1786;DHT22;890;48.158;11.540;2024-02-26T04:04:42;5.80;69.60
1786;DHT22;890;48.158;11.540;2024-02-26T04:07:08;9.50;73.40
1786;DHT22;890;48.158;11.540;2024-02-26T04:09:33;5.80;69.90
1786;DHT22;890;48.158;11.540;2024-02-26T04:11:59;6.00;70.00
1786;DHT22;890;48.158;11.540;2024-02-26T04:14:25;5.80;69.60
1786;DHT22;890;48.158;11.540;2024-02-26T04:16:51;5.70;69.90
1786;DHT22;890;48.158;11.540;2024-02-26T04:19:19;5.90;70.20
1786;DHT22;890;48.158;11.540;2024-02-26T04:21:45;6.20;70.10
1786;DHT22;890;48.158;11.540;2024-02-26T04:24:11;5.90;69.90
1786;DHT22;890;48.158;11.540;2024-02-26T04:26:37;5.90;69.90
1786;DHT22;890;48.158;11.540;2024-02-26T04:29:02;5.80;69.70
1786;DHT22;890;48.158;11.540;2024-02-26T04:31:28;5.80;69.80
1786;DHT22;890;48.158;11.540;2024-02-26T04:33:54;5.80;69.80
1786;DHT22;890;48.158;11.540;2024-02-26T04:36:20;6.90;70.80
1786;DHT22;890;48.158;11.540;2024-02-26T04:38:45;7.20;71.10
1786;DHT22;890;48.158;11.540;2024-02-26T04:41:11;5.60;69.60
1786;DHT22;890;48.158;11.540;2024-02-26T04:43:38;5.70;69.80
1786;DHT22;890;48.158;11.540;2024-02-26T04:46:08;7.10;70.90
1786;DHT22;890;48.158;11.540;2024-02-26T04:48:34;5.50;69.10
1786;DHT22;890;48.158;11.540;2024-02-26T04:51:00;5.50;69.40
1786;DHT22;890;48.158;11.540;2024-02-26T04:53:26;5.60;69.80
1786;DHT22;890;48.158;11.540;2024-02-26T04:55:52;5.60;69.60
1786;DHT22;890;48.158;11.540;2024-02-26T04:58:18;5.50;69.40
1786;DHT22;890;48.158;11.540;2024-02-26T05:00:44;6.50;70.50
1786;DHT22;890;48.158;11.540;2024-02-26T05:03:09;5.50;69.90
1786;DHT22;890;48.158;11.540;2024-02-26T05:05:44;5.50;69.70
1786;DHT22;890;48.158;11.540;2024-02-26T05:08:10;5.60;69.90
1786;DHT22;890;48.158;11.540;2024-02-26T05:10:36;5.50;69.00
1786;DHT22;890;48.158;11.540;2024-02-26T05:13:07;5.60;69.70
1786;DHT22;890;48.158;11.540;2024-02-26T05:15:33;7.10;71.20
1786;DHT22;890;48.158;11.540;2024-02-26T05:17:59;5.60;69.40
1786;DHT22;890;48.158;11.540;2024-02-26T05:20:25;5.60;69.10
1786;DHT22;890;48.158;11.540;2024-02-26T05:22:50;5.80;69.30
1786;DHT22;890;48.158;11.540;2024-02-26T05:25:16;6.20;69.90
1786;DHT22;890;48.158;11.540;2024-02-26T05:27:43;5.80;69.60
1786;DHT22;890;48.158;11.540;2024-02-26T05:30:09;5.90;69.80
1786;DHT22;890;48.158;11.540;2024-02-26T05:32:35;5.90;69.70
1786;DHT22;890;48.158;11.540;2024-02-26T05:35:01;5.80;69.40
1786;DHT22;890;48.158;11.540;2024-02-26T05:37:29;6.00;69.60
1786;DHT22;890;48.158;11.540;2024-02-26T05:39:55;5.90;69.30
1786;DHT22;890;48.158;11.540;2024-02-26T05:42:20;5.90;69.40
1786;DHT22;890;48.158;11.540;2024-02-26T05:44:46;6.00;69.30
1786;DHT22;890;48.158;11.540;2024-02-26T05:47:12;5.80;69.00
1786;DHT22;890;48.158;11.540;2024-02-26T05:49:39;5.80;69.30
1786;DHT22;890;48.158;11.540;2024-02-26T05:52:05;5.90;69.50
1786;DHT22;890;48.158;11.540;2024-02-26T05:54:31;5.80;69.30
1786;DHT22;890;48.158;11.540;2024-02-26T05:56:57;5.90;69.60
1786;DHT22;890;48.158;11.540;2024-02-26T05:59:22;6.00;69.60
1786;DHT22;890;48.158;11.540;2024-02-26T06:01:48;6.10;69.50
1786;DHT22;890;48.158;11.540;2024-02-26T06:04:13;6.20;69.40
1786;DHT22;890;48.158;11.540;2024-02-26T06:06:39;6.20;69.30
1786;DHT22;890;48.158;11.540;2024-02-26T06:09:05;6.30;69.20
1786;DHT22;890;48.158;11.540;2024-02-26T06:11:31;6.20;68.80
1786;DHT22;890;48.158;11.540;2024-02-26T06:13:57;6.20;68.70
1786;DHT22;890;48.158;11.540;2024-02-26T06:16:22;6.20;68.80
1786;DHT22;890;48.158;11.540;2024-02-26T06:18:48;6.30;69.10
1786;DHT22;890;48.158;11.540;2024-02-26T06:21:14;6.50;69.10
1786;DHT22;890;48.158;11.540;2024-02-26T06:23:39;6.50;69.20
1786;DHT22;890;48.158;11.540;2024-02-26T06:26:06;6.50;68.90
1786;DHT22;890;48.158;11.540;2024-02-26T06:28:31;6.50;68.70
1786;DHT22;890;48.158;11.540;2024-02-26T06:30:59;6.60;68.60
1786;DHT22;890;48.158;11.540;2024-02-26T06:33:25;6.60;68.60
1786;DHT22;890;48.158;11.540;2024-02-26T06:35:50;6.60;68.90
1786;DHT22;890;48.158;11.540;2024-02-26T06:38:16;6.80;68.70
1786;DHT22;890;48.158;11.540;2024-02-26T06:40:43;6.80;68.50
1786;DHT22;890;48.158;11.540;2024-02-26T06:43:09;6.90;68.40
1786;DHT22;890;48.158;11.540;2024-02-26T06:45:35;6.90;68.40
1786;DHT22;890;48.158;11.540;2024-02-26T06:48:00;7.00;68.10
1786;DHT22;890;48.158;11.540;2024-02-26T06:50:26;7.10;68.10
1786;DHT22;890;48.158;11.540;2024-02-26T06:52:51;7.30;68.20
1786;DHT22;890;48.158;11.540;2024-02-26T06:55:17;7.10;67.80
1786;DHT22;890;48.158;11.540;2024-02-26T06:57:43;7.10;68.00
1786;DHT22;890;48.158;11.540;2024-02-26T07:00:09;7.20;68.10
1786;DHT22;890;48.158;11.540;2024-02-26T07:02:40;7.20;68.80
1786;DHT22;890;48.158;11.540;2024-02-26T07:05:06;7.20;68.20
1786;DHT22;890;48.158;11.540;2024-02-26T07:07:32;7.20;68.30
1786;DHT22;890;48.158;11.540;2024-02-26T07:09:57;7.20;68.30
1786;DHT22;890;48.158;11.540;2024-02-26T07:12:23;7.40;68.50
1786;DHT22;890;48.158;11.540;2024-02-26T07:14:49;7.30;68.50
1786;DHT22;890;48.158;11.540;2024-02-26T07:17:15;7.50;68.70
1786;DHT22;890;48.158;11.540;2024-02-26T07:19:42;7.30;68.60
1786;DHT22;890;48.158;11.540;2024-02-26T07:22:08;7.40;68.60
1786;DHT22;890;48.158;11.540;2024-02-26T07:24:33;7.40;68.50
1786;DHT22;890;48.158;11.540;2024-02-26T07:26:59;7.60;68.60
1786;DHT22;890;48.158;11.540;2024-02-26T07:29:25;7.50;68.50
1786;DHT22;890;48.158;11.540;2024-02-26T07:31:50;7.40;68.60
1786;DHT22;890;48.158;11.540;2024-02-26T07:34:16;7.40;68.60
1786;DHT22;890;48.158;11.540;2024-02-26T07:36:42;7.40;68.60
1786;DHT22;890;48.158;11.540;2024-02-26T07:39:08;7.50;68.70
1786;DHT22;890;48.158;11.540;2024-02-26T07:41:33;7.70;68.60
1786;DHT22;890;48.158;11.540;2024-02-26T07:43:59;7.80;68.60
1786;DHT22;890;48.158;11.540;2024-02-26T07:46:25;7.90;68.50
1786;DHT22;890;48.158;11.540;2024-02-26T07:48:51;8.00;68.40
1786;DHT22;890;48.158;11.540;2024-02-26T07:51:16;7.90;68.10
1786;DHT22;890;48.158;11.540;2024-02-26T07:53:42;7.90;67.90
1786;DHT22;890;48.158;11.540;2024-02-26T07:56:09;7.90;67.50
1786;DHT22;890;48.158;11.540;2024-02-26T07:58:35;8.10;67.30
1786;DHT22;890;48.158;11.540;2024-02-26T08:01:01;8.10;67.10
1786;DHT22;890;48.158;11.540;2024-02-26T08:03:26;8.00;67.10
1786;DHT22;890;48.158;11.540;2024-02-26T08:05:52;8.20;67.10
1786;DHT22;890;48.158;11.540;2024-02-26T08:08:18;8.10;66.70
1786;DHT22;890;48.158;11.540;2024-02-26T08:10:43;8.10;66.80
1786;DHT22;890;48.158;11.540;2024-02-26T08:13:09;8.30;66.80
1786;DHT22;890;48.158;11.540;2024-02-26T08:15:35;8.20;66.70
1786;DHT22;890;48.158;11.540;2024-02-26T08:18:02;8.20;66.60
1786;DHT22;890;48.158;11.540;2024-02-26T08:20:29;7.80;66.60
1786;DHT22;890;48.158;11.540;2024-02-26T08:22:55;8.60;67.70
1786;DHT22;890;48.158;11.540;2024-02-26T08:25:21;8.90;68.00
1786;DHT22;890;48.158;11.540;2024-02-26T08:27:47;8.90;67.90
1786;DHT22;890;48.158;11.540;2024-02-26T08:30:14;9.20;67.60
1786;DHT22;890;48.158;11.540;2024-02-26T08:32:48;9.40;67.00
1786;DHT22;890;48.158;11.540;2024-02-26T08:35:14;9.50;67.10
1786;DHT22;890;48.158;11.540;2024-02-26T08:37:39;9.60;67.00
1786;DHT22;890;48.158;11.540;2024-02-26T08:40:06;9.60;66.50
1786;DHT22;890;48.158;11.540;2024-02-26T08:42:32;9.70;66.10
1786;DHT22;890;48.158;11.540;2024-02-26T08:44:58;9.90;66.10
1786;DHT22;890;48.158;11.540;2024-02-26T08:47:26;9.80;65.90
1786;DHT22;890;48.158;11.540;2024-02-26T08:49:53;9.80;65.80
1786;DHT22;890;48.158;11.540;2024-02-26T08:52:19;9.90;66.00
1786;DHT22;890;48.158;11.540;2024-02-26T08:54:44;10.00;64.60
1786;DHT22;890;48.158;11.540;2024-02-26T08:57:10;10.00;63.80
1786;DHT22;890;48.158;11.540;2024-02-26T08:59:36;11.90;65.60
1786;DHT22;890;48.158;11.540;2024-02-26T09:02:01;10.00;63.50
1786;DHT22;890;48.158;11.540;2024-02-26T09:04:27;10.10;63.40
1786;DHT22;890;48.158;11.540;2024-02-26T09:06:53;10.20;63.30
1786;DHT22;890;48.158;11.540;2024-02-26T09:09:19;10.10;63.00
1786;DHT22;890;48.158;11.540;2024-02-26T09:11:45;10.10;62.40
1786;DHT22;890;48.158;11.540;2024-02-26T09:14:12;10.00;62.40
1786;DHT22;890;48.158;11.540;2024-02-26T09:16:38;10.10;62.70
1786;DHT22;890;48.158;11.540;2024-02-26T09:19:03;10.20;63.20
1786;DHT22;890;48.158;11.540;2024-02-26T09:21:29;10.20;63.80
1786;DHT22;890;48.158;11.540;2024-02-26T09:23:56;10.10;64.00
1786;DHT22;890;48.158;11.540;2024-02-26T09:26:21;10.10;64.00
1786;DHT22;890;48.158;11.540;2024-02-26T09:28:47;9.90;65.00
1786;DHT22;890;48.158;11.540;2024-02-26T09:31:14;10.30;64.10
1786;DHT22;890;48.158;11.540;2024-02-26T09:33:41;10.40;64.20
1786;DHT22;890;48.158;11.540;2024-02-26T09:36:07;10.40;64.50
1786;DHT22;890;48.158;11.540;2024-02-26T09:38:34;10.50;65.00
1786;DHT22;890;48.158;11.540;2024-02-26T09:41:06;10.70;66.40
1786;DHT22;890;48.158;11.540;2024-02-26T09:43:35;11.00;68.10
1786;DHT22;890;48.158;11.540;2024-02-26T09:46:05;11.50;69.30
1786;DHT22;890;48.158;11.540;2024-02-26T09:48:33;12.10;72.60
1786;DHT22;890;48.158;11.540;2024-02-26T09:51:01;12.80;75.00
1786;DHT22;890;48.158;11.540;2024-02-26T09:53:29;13.80;78.90
1786;DHT22;890;48.158;11.540;2024-02-26T09:55:57;14.90;82.20
1786;DHT22;890;48.158;11.540;2024-02-26T09:58:24;15.90;81.00
1786;DHT22;890;48.158;11.540;2024-02-26T10:00:53;16.40;79.30
1786;DHT22;890;48.158;11.540;2024-02-26T10:03:22;17.00;80.20
1786;DHT22;890;48.158;11.540;2024-02-26T10:05:51;17.60;77.00
1786;DHT22;890;48.158;11.540;2024-02-26T10:08:17;17.70;72.70
1786;DHT22;890;48.158;11.540;2024-02-26T10:10:44;17.80;68.20
1786;DHT22;890;48.158;11.540;2024-02-26T10:13:10;17.30;62.70
1786;DHT22;890;48.158;11.540;2024-02-26T10:15:37;16.90;59.20
1786;DHT22;890;48.158;11.540;2024-02-26T10:18:06;16.50;57.60
1786;DHT22;890;48.158;11.540;2024-02-26T10:20:32;16.00;56.10
1786;DHT22;890;48.158;11.540;2024-02-26T10:23:02;15.60;55.50
1786;DHT22;890;48.158;11.540;2024-02-26T10:25:28;15.10;55.60
1786;DHT22;890;48.158;11.540;2024-02-26T10:27:53;14.70;56.00
1786;DHT22;890;48.158;11.540;2024-02-26T10:30:20;14.60;56.50
1786;DHT22;890;48.158;11.540;2024-02-26T10:32:48;14.50;57.80
1786;DHT22;890;48.158;11.540;2024-02-26T10:35:15;14.40;57.50
1786;DHT22;890;48.158;11.540;2024-02-26T10:37:41;14.40;57.50
1786;DHT22;890;48.158;11.540;2024-02-26T10:40:11;14.50;57.90
1786;DHT22;890;48.158;11.540;2024-02-26T10:42:37;14.50;57.00
1786;DHT22;890;48.158;11.540;2024-02-26T10:45:08;14.50;55.80
1786;DHT22;890;48.158;11.540;2024-02-26T10:47:35;14.50;55.50
1786;DHT22;890;48.158;11.540;2024-02-26T10:50:02;14.40;55.50
1786;DHT22;890;48.158;11.540;2024-02-26T10:52:34;14.50;55.10
1786;DHT22;890;48.158;11.540;2024-02-26T10:55:02;14.30;54.60
1786;DHT22;890;48.158;11.540;2024-02-26T10:57:33;14.20;54.80
1786;DHT22;890;48.158;11.540;2024-02-26T11:00:01;14.20;54.60
1786;DHT22;890;48.158;11.540;2024-02-26T11:02:31;14.00;54.40
1786;DHT22;890;48.158;11.540;2024-02-26T11:04:58;14.00;54.10
1786;DHT22;890;48.158;11.540;2024-02-26T11:07:26;14.30;55.00
1786;DHT22;890;48.158;11.540;2024-02-26T11:09:53;14.70;56.60
1786;DHT22;890;48.158;11.540;2024-02-26T11:12:20;15.30;57.80
1786;DHT22;890;48.158;11.540;2024-02-26T11:14:47;15.90;59.20
1786;DHT22;890;48.158;11.540;2024-02-26T11:17:15;16.50;58.70
1786;DHT22;890;48.158;11.540;2024-02-26T11:19:43;17.00;57.00
1786;DHT22;890;48.158;11.540;2024-02-26T11:22:09;17.20;55.40
1786;DHT22;890;48.158;11.540;2024-02-26T11:24:35;17.30;55.20
1786;DHT22;890;48.158;11.540;2024-02-26T11:27:07;17.60;55.50
1786;DHT22;890;48.158;11.540;2024-02-26T11:29:49;18.10;56.70
1786;DHT22;890;48.158;11.540;2024-02-26T11:32:16;18.70;55.10
1786;DHT22;890;48.158;11.540;2024-02-26T11:34:42;18.50;52.80
1786;DHT22;890;48.158;11.540;2024-02-26T11:37:12;18.30;51.00
1786;DHT22;890;48.158;11.540;2024-02-26T11:39:42;18.10;50.80
1786;DHT22;890;48.158;11.540;2024-02-26T11:42:08;18.20;51.40
1786;DHT22;890;48.158;11.540;2024-02-26T11:44:35;18.50;51.30
1786;DHT22;890;48.158;11.540;2024-02-26T11:47:13;18.40;49.30
1786;DHT22;890;48.158;11.540;2024-02-26T11:49:39;18.20;48.10
1786;DHT22;890;48.158;11.540;2024-02-26T11:52:07;18.20;49.00
1786;DHT22;890;48.158;11.540;2024-02-26T11:54:49;18.20;48.70
1786;DHT22;890;48.158;11.540;2024-02-26T11:59:47;18.50;49.40
1786;DHT22;890;48.158;11.540;2024-02-26T12:05:32;19.00;49.80
1786;DHT22;890;48.158;11.540;2024-02-26T12:08:05;18.30;50.00
1786;DHT22;890;48.158;11.540;2024-02-26T12:10:36;20.40;52.80
1786;DHT22;890;48.158;11.540;2024-02-26T12:13:11;21.60;55.30
1786;DHT22;890;48.158;11.540;2024-02-26T12:15:45;22.40;52.80
1786;DHT22;890;48.158;11.540;2024-02-26T12:18:20;23.30;52.10
1786;DHT22;890;48.158;11.540;2024-02-26T12:20:46;23.70;50.00
1786;DHT22;890;48.158;11.540;2024-02-26T12:23:16;23.90;49.40
1786;DHT22;890;48.158;11.540;2024-02-26T12:25:44;24.00;46.40
1786;DHT22;890;48.158;11.540;2024-02-26T12:28:14;23.60;44.00
1786;DHT22;890;48.158;11.540;2024-02-26T12:30:39;23.30;44.70
1786;DHT22;890;48.158;11.540;2024-02-26T12:33:05;23.20;43.90
1786;DHT22;890;48.158;11.540;2024-02-26T12:35:34;22.80;42.50
1786;DHT22;890;48.158;11.540;2024-02-26T12:38:00;22.60;45.10
1786;DHT22;890;48.158;11.540;2024-02-26T12:40:27;22.60;43.30
1786;DHT22;890;48.158;11.540;2024-02-26T12:42:54;22.20;40.60
1786;DHT22;890;48.158;11.540;2024-02-26T12:45:20;21.30;38.60
1786;DHT22;890;48.158;11.540;2024-02-26T12:47:46;20.40;38.10
1786;DHT22;890;48.158;11.540;2024-02-26T12:50:13;19.80;39.00
1786;DHT22;890;48.158;11.540;2024-02-26T12:52:40;19.20;38.50
1786;DHT22;890;48.158;11.540;2024-02-26T12:55:07;18.60;38.70
1786;DHT22;890;48.158;11.540;2024-02-26T12:57:37;18.20;39.00
1786;DHT22;890;48.158;11.540;2024-02-26T13:00:04;17.90;39.50
1786;DHT22;890;48.158;11.540;2024-02-26T13:02:31;17.60;39.70
1786;DHT22;890;48.158;11.540;2024-02-26T13:04:57;17.30;39.80
1786;DHT22;890;48.158;11.540;2024-02-26T13:07:26;17.10;39.60
1786;DHT22;890;48.158;11.540;2024-02-26T13:09:52;16.60;39.60
1786;DHT22;890;48.158;11.540;2024-02-26T13:12:18;16.30;39.50
1786;DHT22;890;48.158;11.540;2024-02-26T13:14:44;16.00;39.80
1786;DHT22;890;48.158;11.540;2024-02-26T13:17:10;15.70;39.90
1786;DHT22;890;48.158;11.540;2024-02-26T13:19:35;15.60;40.10
1786;DHT22;890;48.158;11.540;2024-02-26T13:22:05;15.50;40.10
1786;DHT22;890;48.158;11.540;2024-02-26T13:24:32;19.70;43.60
1786;DHT22;890;48.158;11.540;2024-02-26T13:26:58;15.20;40.10
1786;DHT22;890;48.158;11.540;2024-02-26T13:29:24;15.20;40.20
1786;DHT22;890;48.158;11.540;2024-02-26T13:31:58;15.00;40.10
1786;DHT22;890;48.158;11.540;2024-02-26T13:34:25;14.90;40.00
1786;DHT22;890;48.158;11.540;2024-02-26T13:36:52;14.80;40.00
1786;DHT22;890;48.158;11.540;2024-02-26T13:39:22;14.80;40.30
1786;DHT22;890;48.158;11.540;2024-02-26T13:41:49;14.80;40.30
1786;DHT22;890;48.158;11.540;2024-02-26T13:44:14;14.80;40.20
1786;DHT22;890;48.158;11.540;2024-02-26T13:46:40;15.00;40.30
1786;DHT22;890;48.158;11.540;2024-02-26T13:49:08;14.90;40.20
1786;DHT22;890;48.158;11.540;2024-02-26T13:51:34;14.90;40.00
1786;DHT22;890;48.158;11.540;2024-02-26T13:54:01;14.70;40.00
1786;DHT22;890;48.158;11.540;2024-02-26T13:56:27;14.60;39.90
1786;DHT22;890;48.158;11.540;2024-02-26T13:58:52;14.60;40.10
1786;DHT22;890;48.158;11.540;2024-02-26T14:01:18;14.60;40.10
1786;DHT22;890;48.158;11.540;2024-02-26T14:03:44;14.60;39.90
1786;DHT22;890;48.158;11.540;2024-02-26T14:06:10;14.70;40.10
1786;DHT22;890;48.158;11.540;2024-02-26T14:08:36;14.70;40.00
1786;DHT22;890;48.158;11.540;2024-02-26T14:11:01;14.70;40.00
1786;DHT22;890;48.158;11.540;2024-02-26T14:13:27;14.70;39.90
1786;DHT22;890;48.158;11.540;2024-02-26T14:15:53;14.60;39.90
1786;DHT22;890;48.158;11.540;2024-02-26T14:18:18;14.60;40.10
1786;DHT22;890;48.158;11.540;2024-02-26T14:20:44;14.50;40.00
1786;DHT22;890;48.158;11.540;2024-02-26T14:23:10;14.50;40.20
1786;DHT22;890;48.158;11.540;2024-02-26T14:25:36;14.50;40.30
1786;DHT22;890;48.158;11.540;2024-02-26T14:28:02;14.40;40.50
1786;DHT22;890;48.158;11.540;2024-02-26T14:30:28;14.30;40.50
1786;DHT22;890;48.158;11.540;2024-02-26T14:32:54;14.30;40.80
1786;DHT22;890;48.158;11.540;2024-02-26T14:35:20;14.20;41.00
1786;DHT22;890;48.158;11.540;2024-02-26T14:37:46;14.10;41.30
1786;DHT22;890;48.158;11.540;2024-02-26T14:40:13;14.00;41.60
1786;DHT22;890;48.158;11.540;2024-02-26T14:42:39;14.00;42.10
1786;DHT22;890;48.158;11.540;2024-02-26T14:45:06;13.90;42.30
1786;DHT22;890;48.158;11.540;2024-02-26T14:47:37;13.90;42.40
1786;DHT22;890;48.158;11.540;2024-02-26T14:50:04;13.90;42.60
1786;DHT22;890;48.158;11.540;2024-02-26T14:52:30;13.80;42.60
1786;DHT22;890;48.158;11.540;2024-02-26T14:54:56;13.80;42.90
1786;DHT22;890;48.158;11.540;2024-02-26T14:57:23;13.70;43.00
1786;DHT22;890;48.158;11.540;2024-02-26T14:59:49;13.60;43.40
1786;DHT22;890;48.158;11.540;2024-02-26T15:02:16;13.50;43.80
1786;DHT22;890;48.158;11.540;2024-02-26T15:04:43;13.40;44.10
1786;DHT22;890;48.158;11.540;2024-02-26T15:07:09;13.30;44.30
1786;DHT22;890;48.158;11.540;2024-02-26T15:09:35;13.30;44.40
1786;DHT22;890;48.158;11.540;2024-02-26T15:12:00;13.20;44.60
1786;DHT22;890;48.158;11.540;2024-02-26T15:14:26;13.10;44.80
1786;DHT22;890;48.158;11.540;2024-02-26T15:16:52;13.10;44.90
1786;DHT22;890;48.158;11.540;2024-02-26T15:19:18;13.00;45.00
1786;DHT22;890;48.158;11.540;2024-02-26T15:21:44;13.00;45.00
1786;DHT22;890;48.158;11.540;2024-02-26T15:24:10;12.90;45.20
1786;DHT22;890;48.158;11.540;2024-02-26T15:26:41;12.90;45.10
1786;DHT22;890;48.158;11.540;2024-02-26T15:29:07;12.80;45.20
1786;DHT22;890;48.158;11.540;2024-02-26T15:31:37;12.70;45.30
1786;DHT22;890;48.158;11.540;2024-02-26T15:34:03;12.70;45.50
1786;DHT22;890;48.158;11.540;2024-02-26T15:36:29;12.70;45.60
1786;DHT22;890;48.158;11.540;2024-02-26T15:38:54;12.70;45.70
1786;DHT22;890;48.158;11.540;2024-02-26T15:41:20;12.60;45.70
1786;DHT22;890;48.158;11.540;2024-02-26T15:43:46;12.60;45.90
1786;DHT22;890;48.158;11.540;2024-02-26T15:46:11;12.60;45.80
1786;DHT22;890;48.158;11.540;2024-02-26T15:48:37;12.70;46.00
1786;DHT22;890;48.158;11.540;2024-02-26T15:51:03;12.60;45.90
1786;DHT22;890;48.158;11.540;2024-02-26T15:53:29;12.60;46.10
1786;DHT22;890;48.158;11.540;2024-02-26T15:55:55;12.50;46.20
1786;DHT22;890;48.158;11.540;2024-02-26T15:58:20;12.50;46.30
1786;DHT22;890;48.158;11.540;2024-02-26T16:00:46;12.40;46.40
1786;DHT22;890;48.158;11.540;2024-02-26T16:03:12;12.40;46.40
1786;DHT22;890;48.158;11.540;2024-02-26T16:05:38;12.40;46.60
1786;DHT22;890;48.158;11.540;2024-02-26T16:08:08;12.40;46.60
1786;DHT22;890;48.158;11.540;2024-02-26T16:10:36;12.50;46.80